Terminal Aerodrome Forecast
Issued by NWS Mobile, AL

Home | Current Version | Previous Version | Text Only | Print | Product List | Glossary On
Versions: 1 2 3 4 5 6 7 8 9 10 11 12 13 14 15 16 17
000
FTUS44 KMOB 080534
TAFMOB
TAF
KMOB 080534Z 0806/0906 02005KT P6SM BKN020
     FM080900 01010KT P6SM OVC020
      TEMPO 0809/0813 OVC007
     FM081500 01014G22KT P6SM SCT050
     FM090000 36012KT P6SM BKN150=

USA.gov is the U.S. government's official web portal to all federal, state and local government web resources and services.